createdAt,value
2022-10-11T00:02:08.036Z,69.80
2022-10-11T00:04:35.892Z,69.52
2022-10-11T00:07:05.180Z,70.18
2022-10-11T00:09:33.086Z,69.74
2022-10-11T00:12:01.466Z,69.73
2022-10-11T00:14:29.889Z,71.29
2022-10-11T00:16:57.763Z,70.29
2022-10-11T00:19:25.576Z,69.84
2022-10-11T00:21:53.566Z,70.38
2022-10-11T00:24:22.808Z,70.81
2022-10-11T00:26:50.642Z,70.18
2022-10-11T00:29:18.547Z,70.30
2022-10-11T00:31:46.367Z,70.37
2022-10-11T00:34:15.644Z,70.45
2022-10-11T00:36:43.486Z,69.62
2022-10-11T00:39:12.967Z,70.12
2022-10-11T00:41:43.648Z,70.19
2022-10-11T00:44:14.564Z,71.41
2022-10-11T00:46:45.660Z,71.54
2022-10-11T00:49:19.199Z,70.70
2022-10-11T00:51:54.153Z,71.00
2022-10-11T00:54:26.721Z,71.22
2022-10-11T00:57:02.572Z,71.34
2022-10-11T00:59:35.837Z,71.85
2022-10-11T01:02:04.226Z,71.31
2022-10-11T01:04:32.204Z,71.10
2022-10-11T01:07:01.259Z,71.22
2022-10-11T01:09:30.765Z,72.15
2022-10-11T01:12:03.520Z,72.27
2022-10-11T01:14:53.707Z,71.71
2022-10-11T01:17:30.174Z,71.82
2022-10-11T01:20:22.631Z,71.67
2022-10-11T01:23:24.643Z,71.61
2022-10-11T01:26:14.473Z,71.64
2022-10-11T01:28:52.152Z,71.73
2022-10-11T01:31:26.484Z,72.60
2022-10-11T01:34:01.117Z,72.83
2022-10-11T01:36:34.790Z,73.50
2022-10-11T01:39:07.638Z,73.01
2022-10-11T01:41:40.080Z,73.13
2022-10-11T01:44:10.538Z,74.67
2022-10-11T01:46:39.868Z,74.13
2022-10-11T01:49:08.014Z,73.58
2022-10-11T01:51:44.063Z,73.93
2022-10-11T01:55:08.694Z,74.18
2022-10-11T01:57:51.054Z,74.66
2022-10-11T02:00:21.280Z,74.55
2022-10-11T02:03:07.317Z,74.46
2022-10-11T02:05:43.936Z,74.35
2022-10-11T02:08:24.437Z,74.09
2022-10-11T02:11:01.460Z,73.88
2022-10-11T02:13:36.316Z,74.56
2022-10-11T02:16:11.462Z,74.54
2022-10-11T02:18:45.142Z,74.87
2022-10-11T02:21:17.425Z,75.13
2022-10-11T02:23:49.366Z,74.57
2022-10-11T02:26:20.345Z,75.34
2022-10-11T02:28:50.953Z,75.36
2022-10-11T02:31:20.533Z,75.08
2022-10-11T02:33:56.708Z,75.53
2022-10-11T02:36:31.827Z,75.55
2022-10-11T02:39:06.437Z,75.12
2022-10-11T02:41:39.613Z,75.28
2022-10-11T02:44:11.640Z,75.77
2022-10-11T02:46:41.077Z,75.20
2022-10-11T02:49:10.486Z,74.88
2022-10-11T02:51:38.363Z,76.25
2022-10-11T02:54:06.671Z,76.56
2022-10-11T02:56:34.510Z,76.68
2022-10-11T02:59:02.409Z,76.16
2022-10-11T03:01:30.306Z,76.66
2022-10-11T03:03:58.212Z,76.66
2022-10-11T03:06:27.425Z,76.39
2022-10-11T03:08:55.389Z,76.15
2022-10-11T03:11:23.407Z,77.01
2022-10-11T03:13:51.268Z,77.35
2022-10-11T03:16:19.286Z,77.29
2022-10-11T03:18:47.191Z,76.82
2022-10-11T03:21:15.085Z,76.77
2022-10-11T03:23:44.285Z,77.32
2022-10-11T03:26:12.207Z,77.76
2022-10-11T03:28:40.111Z,77.59
2022-10-11T03:31:08.051Z,77.08
2022-10-11T03:33:35.919Z,77.09
2022-10-11T03:36:04.099Z,77.38
2022-10-11T03:38:32.106Z,78.40
2022-10-11T03:41:01.278Z,78.94
2022-10-11T03:43:29.125Z,79.39
2022-10-11T03:45:56.955Z,79.66
2022-10-11T03:48:25.176Z,79.14
2022-10-11T03:50:53.122Z,79.85
2022-10-11T03:53:20.991Z,79.39
2022-10-11T03:55:53.437Z,79.83
2022-10-11T03:58:23.296Z,79.73
2022-10-11T04:00:52.900Z,79.80
2022-10-11T04:03:21.069Z,79.35
2022-10-11T04:05:49.021Z,79.24
2022-10-11T04:08:16.827Z,80.09
2022-10-11T04:10:45.082Z,79.17
2022-10-11T04:13:13.122Z,80.30
2022-10-11T04:15:42.376Z,79.83
2022-10-11T04:18:10.501Z,79.95
2022-10-11T04:20:38.384Z,80.41
2022-10-11T04:23:06.246Z,80.14
2022-10-11T04:25:34.170Z,79.79
2022-10-11T04:28:02.007Z,80.33
2022-10-11T04:30:29.841Z,80.81
2022-10-11T04:32:59.451Z,80.93
2022-10-11T04:35:27.365Z,80.64
2022-10-11T04:37:55.263Z,81.45
2022-10-11T04:40:23.206Z,80.53
2022-10-11T04:42:53.639Z,81.73
2022-10-11T04:45:21.766Z,80.56
2022-10-11T04:47:49.807Z,81.52
2022-10-11T04:50:19.354Z,80.88
2022-10-11T04:52:47.195Z,81.48
2022-10-11T04:55:15.089Z,81.23
2022-10-11T04:57:42.946Z,80.91
2022-10-11T05:00:12.292Z,80.39
2022-10-11T05:02:40.145Z,80.82
2022-10-11T05:05:08.870Z,80.85
2022-10-11T05:07:38.037Z,80.90
2022-10-11T05:10:06.706Z,80.93
2022-10-11T05:12:34.517Z,79.69
2022-10-11T05:15:02.406Z,80.63
2022-10-11T05:17:30.246Z,81.05
2022-10-11T05:19:58.067Z,80.72
2022-10-11T05:22:25.914Z,80.48
2022-10-11T05:24:55.115Z,80.26
2022-10-11T05:27:22.945Z,81.23
2022-10-11T05:29:50.765Z,81.30
2022-10-11T05:32:18.616Z,80.87
2022-10-11T05:34:46.484Z,80.06
2022-10-11T05:37:14.329Z,80.88
2022-10-11T05:39:42.133Z,80.15
2022-10-11T05:42:11.492Z,80.08
2022-10-11T05:44:39.514Z,80.51
2022-10-11T05:47:07.437Z,80.92
2022-10-11T05:49:35.280Z,80.61
2022-10-11T05:52:03.180Z,81.04
2022-10-11T05:54:32.353Z,81.53
2022-10-11T05:57:00.206Z,80.82
2022-10-11T05:59:29.397Z,80.88
2022-10-11T06:01:57.249Z,80.58
2022-10-11T06:04:25.052Z,81.22
2022-10-11T06:06:52.889Z,79.81
2022-10-11T06:09:20.698Z,79.30
2022-10-11T06:11:49.071Z,78.69
2022-10-11T06:14:16.874Z,79.03
2022-10-11T06:16:46.090Z,79.24
2022-10-11T06:19:14.135Z,78.81
2022-10-11T06:21:42.016Z,78.32
2022-10-11T06:24:09.965Z,79.15
2022-10-11T06:26:37.859Z,78.59
2022-10-11T06:29:06.432Z,79.13
2022-10-11T06:31:34.359Z,79.63
2022-10-11T06:34:03.552Z,79.50
2022-10-11T06:36:31.383Z,79.73
2022-10-11T06:39:01.363Z,78.62
2022-10-11T06:41:31.098Z,78.54
2022-10-11T06:43:59.113Z,77.75
2022-10-11T06:46:28.521Z,77.24
2022-10-11T06:48:56.546Z,77.05
2022-10-11T06:51:27.165Z,78.06
2022-10-11T06:53:57.813Z,78.06
2022-10-11T06:56:26.940Z,77.58
2022-10-11T06:58:55.831Z,78.93
2022-10-11T07:01:24.653Z,78.30
2022-10-11T07:03:54.054Z,77.97
2022-10-11T07:06:24.010Z,78.10
2022-10-11T07:08:53.679Z,77.82
2022-10-11T07:11:23.760Z,77.75
2022-10-11T07:13:52.668Z,77.74
2022-10-11T07:16:21.789Z,77.93
2022-10-11T07:18:57.240Z,77.82
2022-10-11T07:21:28.232Z,76.95
2022-10-11T07:23:57.422Z,77.85
2022-10-11T07:26:25.289Z,77.68
2022-10-11T07:28:53.374Z,77.08
2022-10-11T07:31:23.930Z,76.26
2022-10-11T07:33:52.406Z,77.04
2022-10-11T07:36:20.620Z,77.06
2022-10-11T07:38:50.075Z,75.92
2022-10-11T07:41:19.548Z,76.91
2022-10-11T07:43:49.596Z,76.63
2022-10-11T07:46:18.294Z,76.51
2022-10-11T07:48:46.246Z,75.63
2022-10-11T07:51:16.815Z,75.11
2022-10-11T07:53:46.472Z,75.31
2022-10-11T07:56:16.113Z,75.58
2022-10-11T07:58:45.484Z,75.41
2022-10-11T08:01:14.648Z,74.28
2022-10-11T08:03:42.600Z,75.06
2022-10-11T08:06:15.101Z,74.06
2022-10-11T08:08:42.968Z,74.67
2022-10-11T08:11:11.235Z,74.80
2022-10-11T08:13:39.416Z,73.74
2022-10-11T08:16:13.372Z,73.10
2022-10-11T08:18:41.218Z,73.06
2022-10-11T08:21:09.607Z,72.52
2022-10-11T08:23:37.583Z,73.33
2022-10-11T08:26:06.861Z,73.04
2022-10-11T08:28:35.176Z,73.02
2022-10-11T08:31:03.424Z,72.88
2022-10-11T08:33:32.714Z,72.83
2022-10-11T08:36:04.906Z,73.14
2022-10-11T08:38:33.118Z,72.65
2022-10-11T08:41:02.288Z,71.93
2022-10-11T08:43:42.140Z,70.77
2022-10-11T08:46:13.045Z,70.91
2022-10-11T08:48:45.981Z,70.18
2022-10-11T08:51:21.745Z,71.45
2022-10-11T08:53:54.980Z,70.79
2022-10-11T08:56:24.974Z,70.61
2022-10-11T08:58:57.767Z,70.05
2022-10-11T09:01:28.185Z,70.50
2022-10-11T09:04:00.661Z,69.93
2022-10-11T09:06:43.880Z,69.45
2022-10-11T09:09:29.736Z,66.77
2022-10-11T09:12:10.871Z,69.17
2022-10-11T09:15:02.254Z,68.69
2022-10-11T09:17:46.087Z,67.12
2022-10-11T09:20:28.286Z,68.52
2022-10-11T09:23:00.763Z,67.43
2022-10-11T09:25:33.137Z,68.67
2022-10-11T09:28:09.097Z,66.19
2022-10-11T09:30:40.541Z,66.40
2022-10-11T09:33:18.513Z,65.66
2022-10-11T09:35:50.103Z,64.22
2022-10-11T09:38:35.447Z,64.30
2022-10-11T09:41:13.085Z,62.91
2022-10-11T09:43:41.297Z,59.96
2022-10-11T09:46:20.961Z,61.11
2022-10-11T09:48:49.902Z,61.78
2022-10-11T09:51:22.602Z,61.55
2022-10-11T09:54:01.704Z,60.41
2022-10-11T09:56:31.818Z,59.70
2022-10-11T09:59:11.456Z,59.79
2022-10-11T10:01:39.369Z,58.23
2022-10-11T10:04:11.646Z,59.22
2022-10-11T10:06:41.496Z,60.64
2022-10-11T10:09:22.899Z,59.43
2022-10-11T10:11:50.929Z,59.01
2022-10-11T10:14:22.559Z,58.19
2022-10-11T10:17:00.701Z,57.08
2022-10-11T10:19:29.108Z,55.24
2022-10-11T10:21:58.753Z,56.33
2022-10-11T10:24:37.110Z,55.27
2022-10-11T10:27:18.004Z,54.20
2022-10-11T10:30:00.076Z,54.21
2022-10-11T10:32:31.858Z,54.05
2022-10-11T10:35:08.296Z,53.30
2022-10-11T10:37:42.544Z,53.58
2022-10-11T10:40:15.416Z,52.92
2022-10-11T10:42:43.411Z,53.02
2022-10-11T10:45:21.215Z,51.76
2022-10-11T10:48:06.465Z,52.07
2022-10-11T10:50:48.669Z,50.25
2022-10-11T10:53:26.167Z,48.96
2022-10-11T10:56:02.061Z,49.01
2022-10-11T10:58:54.809Z,48.00
2022-10-11T11:01:27.282Z,47.74
2022-10-11T11:04:00.659Z,48.39
2022-10-11T11:06:35.639Z,48.82
2022-10-11T11:09:25.618Z,46.56
2022-10-11T11:12:05.991Z,47.25
2022-10-11T11:14:44.961Z,46.95
2022-10-11T11:17:25.869Z,50.46
2022-10-11T11:20:05.114Z,49.54
2022-10-11T11:22:46.259Z,49.31
2022-10-11T11:25:28.397Z,47.82
2022-10-11T11:28:12.733Z,47.83
2022-10-11T11:30:48.556Z,47.77
2022-10-11T11:33:24.892Z,47.89
2022-10-11T11:35:55.363Z,47.87
2022-10-11T11:38:29.932Z,45.64
2022-10-11T11:41:02.408Z,44.34
2022-10-11T11:43:37.751Z,45.92
2022-10-11T11:46:11.441Z,46.86
2022-10-11T11:48:40.211Z,48.01
2022-10-11T11:51:14.990Z,48.77
2022-10-11T11:53:52.862Z,47.01
2022-10-11T11:56:28.139Z,46.77
2022-10-11T11:59:03.984Z,46.01
2022-10-11T12:01:43.524Z,45.32
2022-10-11T12:04:20.153Z,45.86
2022-10-11T12:07:15.398Z,46.08
2022-10-11T12:09:46.549Z,44.88
2022-10-11T12:12:30.701Z,46.04
2022-10-11T12:15:17.925Z,46.85
2022-10-11T12:18:04.130Z,46.90
2022-10-11T12:20:33.532Z,47.71
2022-10-11T12:23:02.357Z,49.13
2022-10-11T12:25:45.013Z,48.03
2022-10-11T12:28:50.488Z,47.23
2022-10-11T12:31:23.587Z,48.04
2022-10-11T12:34:21.412Z,48.71
2022-10-11T12:36:50.518Z,49.96
2022-10-11T12:39:51.837Z,48.66
2022-10-11T12:42:30.171Z,49.95
2022-10-11T12:45:31.356Z,49.50
2022-10-11T12:48:11.166Z,49.97
2022-10-11T12:50:51.447Z,49.09
2022-10-11T12:54:02.285Z,48.91
2022-10-11T12:56:46.396Z,49.11
2022-10-11T12:59:19.356Z,46.07
2022-10-11T13:01:52.540Z,48.27
2022-10-11T13:04:23.577Z,47.87
2022-10-11T13:06:54.670Z,47.24
2022-10-11T13:09:29.679Z,45.87
2022-10-11T13:12:04.040Z,46.83
2022-10-11T13:14:39.552Z,47.37
2022-10-11T13:17:16.011Z,47.42
2022-10-11T13:19:45.259Z,48.63
2022-10-11T13:22:19.361Z,47.42
2022-10-11T13:24:47.249Z,47.51
2022-10-11T13:27:21.250Z,47.63
2022-10-11T13:29:51.238Z,47.95
2022-10-11T13:32:22.388Z,48.90
2022-10-11T13:34:58.427Z,47.66
2022-10-11T13:37:28.575Z,48.45
2022-10-11T13:39:57.821Z,48.41
2022-10-11T13:42:29.459Z,47.20
2022-10-11T13:44:58.307Z,47.80
2022-10-11T13:47:29.132Z,45.92
2022-10-11T13:50:11.159Z,46.98
2022-10-11T13:52:54.316Z,45.80
2022-10-11T13:55:28.656Z,46.72
2022-10-11T13:57:58.447Z,45.90
2022-10-11T14:00:31.741Z,45.42
2022-10-11T14:03:00.855Z,46.62
2022-10-11T14:05:36.445Z,46.73
2022-10-11T14:08:07.562Z,48.27
2022-10-11T14:10:35.733Z,46.65
2022-10-11T14:13:25.526Z,48.30
2022-10-11T14:16:01.295Z,46.41
2022-10-11T14:18:43.452Z,46.65
2022-10-11T14:21:34.601Z,46.38
2022-10-11T14:24:05.029Z,47.19
2022-10-11T14:26:35.548Z,47.80
2022-10-11T14:29:07.895Z,47.10
2022-10-11T14:31:41.728Z,47.43
2022-10-11T14:34:17.494Z,47.68
2022-10-11T14:36:47.261Z,47.84
2022-10-11T14:39:18.156Z,48.28
2022-10-11T14:41:47.028Z,47.45
2022-10-11T14:44:16.674Z,48.47
2022-10-11T14:46:45.687Z,47.71
2022-10-11T14:49:16.007Z,48.24
2022-10-11T14:51:45.544Z,48.79
2022-10-11T14:54:15.959Z,47.92
2022-10-11T14:56:43.900Z,47.59
2022-10-11T14:59:14.905Z,48.45
2022-10-11T15:01:42.893Z,48.06
2022-10-11T15:04:10.891Z,46.75
2022-10-11T15:06:40.591Z,46.97
2022-10-11T15:09:08.919Z,45.94
2022-10-11T15:11:39.165Z,46.69
2022-10-11T15:14:07.731Z,47.95
2022-10-11T15:16:36.510Z,48.25
2022-10-11T15:19:04.488Z,48.54
2022-10-11T15:21:32.354Z,45.87
2022-10-11T15:24:00.204Z,49.05
2022-10-11T15:26:29.665Z,48.75
2022-10-11T15:28:59.166Z,46.33
2022-10-11T15:31:27.337Z,47.32
2022-10-11T15:33:59.357Z,46.62
2022-10-11T15:36:28.831Z,46.48
2022-10-11T15:38:57.283Z,47.81
2022-10-11T15:41:25.205Z,48.89
2022-10-11T15:43:53.075Z,48.64
2022-10-11T15:46:23.608Z,48.47
2022-10-11T15:48:53.056Z,50.81
2022-10-11T15:51:20.888Z,49.54
2022-10-11T15:53:49.309Z,50.37
2022-10-11T15:56:19.342Z,50.75
2022-10-11T15:58:47.260Z,50.57
2022-10-11T16:01:17.271Z,50.12
2022-10-11T16:03:47.461Z,50.23
2022-10-11T16:06:15.501Z,49.44
2022-10-11T16:08:43.521Z,50.73
2022-10-11T16:11:12.904Z,50.74
2022-10-11T16:13:40.936Z,51.01
2022-10-11T16:16:10.094Z,51.39
2022-10-11T16:18:38.392Z,51.32
2022-10-11T16:21:10.142Z,51.53
2022-10-11T16:23:38.296Z,51.66
2022-10-11T16:26:09.383Z,53.71
2022-10-11T16:28:38.028Z,52.26
2022-10-11T16:31:10.529Z,55.84
2022-10-11T16:33:45.732Z,53.35
2022-10-11T16:36:34.394Z,53.26
2022-10-11T16:39:04.054Z,53.78
2022-10-11T16:41:31.892Z,55.14
2022-10-11T16:43:59.865Z,54.47
2022-10-11T16:46:27.681Z,56.74
2022-10-11T16:48:56.711Z,55.73
2022-10-11T16:51:26.044Z,56.46
2022-10-11T16:53:54.145Z,56.72
2022-10-11T16:56:24.048Z,56.06
2022-10-11T16:58:53.075Z,56.24
2022-10-11T17:01:21.331Z,58.81
2022-10-11T17:03:50.812Z,56.64
2022-10-11T17:06:19.085Z,58.29
2022-10-11T17:08:48.335Z,58.19
2022-10-11T17:11:17.589Z,57.46
2022-10-11T17:13:46.335Z,60.59
2022-10-11T17:16:14.567Z,58.54
2022-10-11T17:18:42.593Z,60.25
2022-10-11T17:21:13.216Z,58.89
2022-10-11T17:23:41.147Z,59.75
2022-10-11T17:26:14.323Z,59.37
2022-10-11T17:28:42.311Z,59.54
2022-10-11T17:31:10.391Z,60.48
2022-10-11T17:33:38.612Z,60.34
2022-10-11T17:36:14.636Z,60.62
2022-10-11T17:38:42.569Z,61.46
2022-10-11T17:41:12.144Z,60.50
2022-10-11T17:43:40.237Z,60.75
2022-10-11T17:46:09.193Z,62.87
2022-10-11T17:48:39.213Z,61.94
2022-10-11T17:51:09.165Z,61.74
2022-10-11T17:53:37.981Z,62.75
2022-10-11T17:56:06.993Z,63.64
2022-10-11T17:58:36.300Z,62.43
2022-10-11T18:01:06.155Z,60.95
2022-10-11T18:03:34.795Z,62.82
2022-10-11T18:06:04.455Z,62.44
2022-10-11T18:08:36.423Z,61.17
2022-10-11T18:11:11.776Z,62.85
2022-10-11T18:13:43.227Z,62.52
2022-10-11T18:16:11.832Z,62.68
2022-10-11T18:18:40.012Z,61.73
2022-10-11T18:21:07.959Z,63.03
2022-10-11T18:23:37.324Z,62.73
2022-10-11T18:26:10.990Z,64.50
2022-10-11T18:28:41.193Z,63.79
2022-10-11T18:31:13.163Z,62.23
2022-10-11T18:33:42.698Z,63.05
2022-10-11T18:36:13.437Z,63.29
2022-10-11T18:38:46.364Z,63.73
2022-10-11T18:41:16.809Z,64.87
2022-10-11T18:43:50.075Z,63.04
2022-10-11T18:46:18.540Z,62.34
2022-10-11T18:48:48.867Z,64.10
2022-10-11T18:51:19.330Z,63.49
2022-10-11T18:53:48.356Z,63.21
2022-10-11T18:56:17.490Z,62.98
2022-10-11T18:58:46.664Z,64.25
2022-10-11T19:01:16.959Z,63.58
2022-10-11T19:03:45.995Z,63.55
2022-10-11T19:06:17.786Z,64.40
2022-10-11T19:08:45.707Z,65.68
2022-10-11T19:11:15.586Z,64.85
2022-10-11T19:13:44.451Z,64.83
2022-10-11T19:16:15.654Z,64.34
2022-10-11T19:18:44.654Z,66.14
2022-10-11T19:21:14.529Z,65.42
2022-10-11T19:23:44.142Z,65.37
2022-10-11T19:26:15.685Z,65.17
2022-10-11T19:28:44.252Z,67.31
2022-10-11T19:31:16.854Z,66.50
2022-10-11T19:33:47.972Z,66.17
2022-10-11T19:36:16.406Z,65.68
2022-10-11T19:38:46.153Z,66.28
2022-10-11T19:41:15.503Z,66.58
2022-10-11T19:43:43.376Z,68.19
2022-10-11T19:46:20.216Z,66.67
2022-10-11T19:48:51.932Z,66.17
2022-10-11T19:51:21.986Z,66.50
2022-10-11T19:53:50.862Z,67.09
2022-10-11T19:56:19.532Z,67.68
2022-10-11T19:58:47.432Z,66.14
2022-10-11T20:01:18.451Z,66.20
2022-10-11T20:03:48.586Z,67.94
2022-10-11T20:06:17.385Z,66.65
2022-10-11T20:08:46.981Z,67.15
2022-10-11T20:11:14.915Z,66.87
2022-10-11T20:13:42.967Z,68.32
2022-10-11T20:16:12.722Z,68.20
2022-10-11T20:18:42.643Z,68.08
2022-10-11T20:21:12.982Z,66.80
2022-10-11T20:26:17.888Z,68.96
2022-10-11T20:28:46.196Z,68.99
2022-10-11T20:31:17.268Z,67.36
2022-10-11T20:33:47.569Z,68.09
2022-10-11T20:36:16.939Z,68.37
2022-10-11T20:38:46.765Z,69.27
2022-10-11T20:41:17.895Z,67.48
2022-10-11T20:43:46.296Z,67.95
2022-10-11T20:46:16.677Z,69.35
2022-10-11T20:48:50.767Z,67.84
2022-10-11T20:51:19.439Z,67.72
2022-10-11T20:53:47.720Z,67.77
2022-10-11T20:56:17.429Z,68.29
2022-10-11T20:58:45.621Z,69.12
2022-10-11T21:01:15.949Z,68.41
2022-10-11T21:03:44.265Z,69.36
2022-10-11T21:06:13.942Z,69.19
2022-10-11T21:08:41.958Z,70.24
2022-10-11T21:11:10.752Z,69.07
2022-10-11T21:13:38.993Z,70.22
2022-10-11T21:16:08.139Z,68.71
2022-10-11T21:18:36.008Z,70.76
2022-10-11T21:21:08.391Z,70.01
2022-10-11T21:23:37.663Z,69.73
2022-10-11T21:26:07.276Z,69.36
2022-10-11T21:28:35.798Z,70.59
2022-10-11T21:31:05.004Z,71.16
2022-10-11T21:33:32.825Z,70.88
2022-10-11T21:36:04.269Z,70.64
2022-10-11T21:38:32.211Z,70.56
2022-10-11T21:41:03.280Z,71.01
2022-10-11T21:43:31.430Z,71.23
2022-10-11T21:45:59.521Z,71.09
2022-10-11T21:48:27.364Z,71.14
2022-10-11T21:50:55.449Z,71.59
2022-10-11T21:53:23.274Z,71.04
2022-10-11T21:55:57.706Z,71.24
2022-10-11T21:58:27.084Z,72.34
2022-10-11T22:00:55.703Z,73.13
2022-10-11T22:03:23.603Z,72.25
2022-10-11T22:05:51.546Z,72.45
2022-10-11T22:08:19.672Z,73.58
2022-10-11T22:10:55.019Z,72.63
2022-10-11T22:13:23.013Z,71.85
2022-10-11T22:15:52.409Z,73.08
2022-10-11T22:18:20.542Z,72.52
2022-10-11T22:20:48.400Z,72.25
2022-10-11T22:23:16.302Z,71.99
2022-10-11T22:25:44.900Z,71.81
2022-10-11T22:28:13.415Z,73.15
2022-10-11T22:30:41.332Z,73.11
2022-10-11T22:33:10.519Z,72.18
2022-10-11T22:35:38.448Z,73.66
2022-10-11T22:38:07.209Z,72.56
2022-10-11T22:40:35.023Z,72.95
2022-10-11T22:43:02.885Z,73.30
2022-10-11T22:45:30.686Z,72.54
2022-10-11T22:47:58.480Z,73.47
2022-10-11T22:50:27.662Z,72.47
2022-10-11T22:52:55.466Z,72.71
2022-10-11T22:55:23.489Z,73.47
2022-10-11T22:57:51.294Z,73.15
2022-10-11T23:00:20.189Z,72.28
2022-10-11T23:02:48.531Z,73.73
2022-10-11T23:05:16.696Z,74.65
2022-10-11T23:07:47.145Z,73.17
2022-10-11T23:10:15.604Z,73.41
2022-10-11T23:12:43.506Z,73.01
2022-10-11T23:15:12.458Z,73.19
2022-10-11T23:17:40.306Z,73.06
2022-10-11T23:20:08.986Z,74.08
2022-10-11T23:22:36.873Z,74.00
2022-10-11T23:25:07.064Z,73.61
2022-10-11T23:27:35.073Z,73.40
2022-10-11T23:30:03.211Z,73.48
2022-10-11T23:32:31.014Z,73.23
2022-10-11T23:34:58.861Z,73.46
2022-10-11T23:37:26.795Z,73.35
2022-10-11T23:39:54.612Z,74.20
2022-10-11T23:42:23.804Z,74.40
2022-10-11T23:44:52.834Z,73.98
2022-10-11T23:47:20.889Z,74.39
2022-10-11T23:49:48.709Z,75.06
2022-10-11T23:52:16.645Z,75.10
2022-10-11T23:54:44.450Z,75.58
2022-10-11T23:57:12.479Z,74.85
2022-10-11T23:59:41.728Z,75.00
